Time,TemperatureF,DewpointF,PressureIn,WindDirection,WindDirectionDegrees,WindSpeedMPH,WindSpeedGustMPH,Humidity,HourlyPrecipIn,Conditions,Clouds,dailyrainin,SoftwareType,DateUTC
2014-01-24 00:00:00,2.6,-4.1,30.61,WSW,257,11.0,11.0,73,0.00,CLR,,0.00,WeatherDisplay:10.37,2014-01-24 05:00:00,
2014-01-24 00:01:00,2.6,-4.1,30.61,West,271,11.5,11.5,73,0.00,CLR,,0.00,WeatherDisplay:10.37,2014-01-24 05:01:00,
2014-01-24 00:02:00,2.6,-4.1,30.61,West,273,10.4,10.4,73,0.00,CLR,,0.00,WeatherDisplay:10.37,2014-01-24 05:02:00,
2014-01-24 00:03:00,2.6,-4.1,30.61,WSW,247,9.2,9.2,73,0.00,CLR,,0.00,WeatherDisplay:10.37,2014-01-24 05:03:00,
2014-01-24 00:04:00,2.6,-4.1,30.61,WSW,256,9.2,9.2,73,0.00,CLR,,0.00,WeatherDisplay:10.37,2014-01-24 05:04:00,
2014-01-24 00:09:00,2.5,-4.2,30.61,West,261,9.2,9.2,73,0.00,CLR,,0.00,WeatherDisplay:10.37,2014-01-24 05:09:00,
2014-01-24 00:14:00,2.6,-4.1,30.61,West,276,9.0,9.0,73,0.00,CLR,,0.00,WeatherDisplay:10.37,2014-01-24 05:14:00,
2014-01-24 00:19:00,2.8,-3.6,30.61,West,268,7.0,7.0,74,0.00,CLR,,0.00,WeatherDisplay:10.37,2014-01-24 05:19:00,
2014-01-24 00:24:00,2.8,-3.6,30.61,West,267,9.2,9.2,74,0.00,CLR,,0.00,WeatherDisplay:10.37,2014-01-24 05:24:00,
2014-01-24 00:29:00,3.0,-3.7,30.61,West,261,9.2,9.2,73,0.00,CLR,,0.00,WeatherDisplay:10.37,2014-01-24 05:29:00,
2014-01-24 00:34:00,3.0,-3.7,30.61,West,259,9.2,9.2,73,0.00,CLR,,0.00,WeatherDisplay:10.37,2014-01-24 05:34:00,
2014-01-24 00:39:00,3.0,-3.4,30.61,WSW,253,10.4,10.4,74,0.00,CLR,,0.00,WeatherDisplay:10.37,2014-01-24 05:39:00,
2014-01-24 00:44:00,3.0,-3.4,30.61,WSW,258,12.0,12.0,74,0.00,CLR,,0.00,WeatherDisplay:10.37,2014-01-24 05:44:00,
2014-01-24 00:49:00,3.1,-3.3,30.61,WSW,245,12.0,12.0,74,0.00,CLR,,0.00,WeatherDisplay:10.37,2014-01-24 05:49:00,
2014-01-24 00:54:00,3.1,-3.3,30.61,WSW,255,11.5,11.5,74,0.00,CLR,,0.00,WeatherDisplay:10.37,2014-01-24 05:54:00,
2014-01-24 00:59:00,3.1,-3.6,30.61,WSW,255,10.4,10.4,73,0.00,CLR,,0.00,WeatherDisplay:10.37,2014-01-24 05:59:00,
2014-01-24 01:04:00,3.0,-3.7,30.60,West,281,16.1,16.1,73,0.00,CLR,,0.00,WeatherDisplay:10.37,2014-01-24 06:04:00,
2014-01-24 01:09:00,2.9,-3.8,30.60,WSW,244,11.5,11.5,73,0.00,CLR,,0.00,WeatherDisplay:10.37,2014-01-24 06:09:00,
2014-01-24 01:14:00,2.9,-3.8,30.60,West,262,9.2,9.2,73,0.00,CLR,,0.00,WeatherDisplay:10.37,2014-01-24 06:14:00,
2014-01-24 01:19:00,2.8,-3.9,30.60,WSW,258,10.4,10.4,73,0.00,CLR,,0.00,WeatherDisplay:10.37,2014-01-24 06:19:00,
2014-01-24 01:24:00,2.8,-3.9,30.60,WSW,257,12.0,12.0,73,0.00,CLR,,0.00,WeatherDisplay:10.37,2014-01-24 06:24:00,
2014-01-24 01:29:00,2.7,-4.0,30.60,West,261,13.8,13.8,73,0.00,CLR,,0.00,WeatherDisplay:10.37,2014-01-24 06:29:00,
2014-01-24 01:34:00,2.6,-4.1,30.60,WSW,256,12.0,12.0,73,0.00,CLR,,0.00,WeatherDisplay:10.37,2014-01-24 06:34:00,
2014-01-24 01:39:00,2.6,-4.1,30.60,WSW,240,11.5,11.5,73,0.00,CLR,,0.00,WeatherDisplay:10.37,2014-01-24 06:39:00,
2014-01-24 01:44:00,2.6,-4.1,30.60,WSW,246,11.0,11.0,73,0.00,CLR,,0.00,WeatherDisplay:10.37,2014-01-24 06:44:00,
2014-01-24 01:49:00,2.5,-4.2,30.60,WSW,246,15.0,15.0,73,0.00,CLR,,0.00,WeatherDisplay:10.37,2014-01-24 06:49:00,
2014-01-24 01:54:00,2.4,-4.3,30.60,WSW,257,13.0,13.0,73,0.00,CLR,,0.00,WeatherDisplay:10.37,2014-01-24 06:54:00,
2014-01-24 01:59:00,2.4,-4.3,30.60,West,268,14.0,14.0,73,0.00,CLR,,0.00,WeatherDisplay:10.37,2014-01-24 06:59:00,
2014-01-24 02:04:00,2.4,-4.3,30.60,West,262,15.0,15.0,73,0.00,CLR,,0.00,WeatherDisplay:10.37,2014-01-24 07:04:00,
2014-01-24 02:09:00,2.5,-4.2,30.61,West,261,12.0,12.0,73,0.00,CLR,,0.00,WeatherDisplay:10.37,2014-01-24 07:09:00,
2014-01-24 02:14:00,2.5,-4.2,30.61,West,262,10.4,10.4,73,0.00,CLR,,0.00,WeatherDisplay:10.37,2014-01-24 07:14:00,
2014-01-24 02:19:00,2.6,-4.1,30.61,WSW,241,13.0,13.0,73,0.00,CLR,,0.00,WeatherDisplay:10.37,2014-01-24 07:19:00,
2014-01-24 02:24:00,2.6,-4.1,30.61,West,266,15.0,15.0,73,0.00,CLR,,0.00,WeatherDisplay:10.37,2014-01-24 07:24:00,
2014-01-24 02:29:00,2.5,-4.2,30.61,West,260,13.0,13.0,73,0.00,CLR,,0.00,WeatherDisplay:10.37,2014-01-24 07:29:00,
2014-01-24 02:34:00,2.4,-4.3,30.61,WSW,245,16.1,16.1,73,0.00,CLR,,0.00,WeatherDisplay:10.37,2014-01-24 07:34:00,
2014-01-24 02:39:00,2.3,-4.4,30.62,West,259,10.0,10.0,73,0.00,CLR,,0.00,WeatherDisplay:10.37,2014-01-24 07:39:00,
2014-01-24 02:44:00,2.3,-4.4,30.62,West,271,11.5,11.5,73,0.00,CLR,,0.00,WeatherDisplay:10.37,2014-01-24 07:44:00,
2014-01-24 02:49:00,2.3,-4.4,30.62,West,272,13.0,13.0,73,0.00,CLR,,0.00,WeatherDisplay:10.37,2014-01-24 07:49:00,
2014-01-24 02:54:00,2.3,-4.4,30.62,West,260,12.0,12.0,73,0.00,CLR,,0.00,WeatherDisplay:10.37,2014-01-24 07:54:00,
2014-01-24 02:59:00,2.3,-4.4,30.62,West,261,14.0,14.0,73,0.00,CLR,,0.00,WeatherDisplay:10.37,2014-01-24 07:59:00,
2014-01-24 03:04:00,2.3,-4.4,30.62,SW,236,12.0,12.0,73,0.00,CLR,,0.00,WeatherDisplay:10.37,2014-01-24 08:04:00,
2014-01-24 03:09:00,2.2,-4.5,30.62,WSW,241,13.0,13.0,73,0.00,CLR,,0.00,WeatherDisplay:10.37,2014-01-24 08:09:00,
2014-01-24 03:14:00,2.2,-4.5,30.62,WSW,244,15.0,15.0,73,0.00,CLR,,0.00,WeatherDisplay:10.37,2014-01-24 08:14:00,
2014-01-24 03:19:00,2.2,-4.5,30.63,WSW,252,11.5,11.5,73,0.00,CLR,,0.00,WeatherDisplay:10.37,2014-01-24 08:19:00,
2014-01-24 03:24:00,2.2,-4.5,30.62,West,265,16.1,16.1,73,0.00,CLR,,0.00,WeatherDisplay:10.37,2014-01-24 08:24:00,
2014-01-24 03:29:00,2.2,-4.5,30.63,WSW,254,13.8,13.8,73,0.00,CLR,,0.00,WeatherDisplay:10.37,2014-01-24 08:29:00,
2014-01-24 03:34:00,2.3,-4.4,30.62,West,266,15.0,15.0,73,0.00,CLR,,0.00,WeatherDisplay:10.37,2014-01-24 08:34:00,
2014-01-24 03:39:00,2.3,-4.4,30.63,WSW,246,11.5,11.5,73,0.00,CLR,,0.00,WeatherDisplay:10.37,2014-01-24 08:39:00,
2014-01-24 03:44:00,2.3,-4.4,30.63,West,262,11.0,11.0,73,0.00,CLR,,0.00,WeatherDisplay:10.37,2014-01-24 08:44:00,
2014-01-24 03:49:00,2.3,-4.4,30.63,West,262,13.0,13.0,73,0.00,CLR,,0.00,WeatherDisplay:10.37,2014-01-24 08:49:00,
2014-01-24 03:54:00,2.3,-4.4,30.63,WSW,256,10.4,10.4,73,0.00,CLR,,0.00,WeatherDisplay:10.37,2014-01-24 08:54:00,
2014-01-24 03:59:00,2.3,-4.4,30.63,West,266,9.2,9.2,73,0.00,CLR,,0.00,WeatherDisplay:10.37,2014-01-24 08:59:00,
2014-01-24 04:04:00,2.3,-4.4,30.63,West,263,17.3,17.3,73,0.00,CLR,,0.00,WeatherDisplay:10.37,2014-01-24 09:04:00,
2014-01-24 04:09:00,2.3,-4.4,30.63,WSW,250,14.0,14.0,73,0.00,CLR,,0.00,WeatherDisplay:10.37,2014-01-24 09:09:00,
2014-01-24 04:14:00,2.3,-4.4,30.63,WSW,256,12.0,12.0,73,0.00,CLR,,0.00,WeatherDisplay:10.37,2014-01-24 09:14:00,
2014-01-24 04:19:00,2.3,-4.4,30.63,WSW,256,15.0,15.0,73,0.00,CLR,,0.00,WeatherDisplay:10.37,2014-01-24 09:19:00,
2014-01-24 04:24:00,2.3,-4.4,30.63,West,259,17.3,17.3,73,0.00,CLR,,0.00,WeatherDisplay:10.37,2014-01-24 09:24:00,
2014-01-24 04:29:00,2.3,-4.4,30.63,WSW,257,16.1,16.1,73,0.00,CLR,,0.00,WeatherDisplay:10.37,2014-01-24 09:29:00,
2014-01-24 04:34:00,2.3,-4.4,30.63,West,267,16.0,16.0,73,0.00,CLR,,0.00,WeatherDisplay:10.37,2014-01-24 09:34:00,
2014-01-24 04:39:00,2.4,-4.3,30.63,WSW,244,12.0,12.0,73,0.00,CLR,,0.00,WeatherDisplay:10.37,2014-01-24 09:39:00,
2014-01-24 04:44:00,2.4,-4.3,30.63,West,267,10.0,10.0,73,0.00,CLR,,0.00,WeatherDisplay:10.37,2014-01-24 09:44:00,
2014-01-24 04:49:00,2.4,-4.3,30.63,WSW,254,11.0,11.0,73,0.00,CLR,,0.00,WeatherDisplay:10.37,2014-01-24 09:49:00,
2014-01-24 04:54:00,2.4,-4.3,30.63,West,263,13.0,13.0,73,0.00,CLR,,0.00,WeatherDisplay:10.37,2014-01-24 09:54:00,
2014-01-24 04:59:00,2.3,-4.4,30.63,West,261,13.0,13.0,73,0.00,CLR,,0.00,WeatherDisplay:10.37,2014-01-24 09:59:00,
2014-01-24 05:04:00,2.2,-4.5,30.63,West,259,12.7,12.7,73,0.00,CLR,,0.00,WeatherDisplay:10.37,2014-01-24 10:04:00,
2014-01-24 05:09:00,2.2,-4.5,30.64,WSW,238,13.0,13.0,73,0.00,CLR,,0.00,WeatherDisplay:10.37,2014-01-24 10:09:00,
2014-01-24 05:14:00,2.1,-4.6,30.64,WSW,249,10.0,10.0,73,0.00,CLR,,0.00,WeatherDisplay:10.37,2014-01-24 10:14:00,
2014-01-24 05:19:00,2.0,-4.7,30.64,SW,234,13.0,13.0,73,0.00,CLR,,0.00,WeatherDisplay:10.37,2014-01-24 10:19:00,
2014-01-24 05:24:00,1.9,-4.8,30.64,WSW,241,13.0,13.0,73,0.00,CLR,,0.00,WeatherDisplay:10.37,2014-01-24 10:24:00,
2014-01-24 05:29:00,1.7,-5.0,30.64,West,259,16.1,16.1,73,0.00,CLR,,0.00,WeatherDisplay:10.37,2014-01-24 10:29:00,
2014-01-24 05:34:00,1.6,-5.1,30.64,WSW,252,11.5,11.5,73,0.00,CLR,,0.00,WeatherDisplay:10.37,2014-01-24 10:34:00,
2014-01-24 05:39:00,1.5,-5.2,30.64,WSW,257,11.5,11.5,73,0.00,CLR,,0.00,WeatherDisplay:10.37,2014-01-24 10:39:00,
2014-01-24 05:44:00,1.4,-5.3,30.64,WSW,240,10.4,10.4,73,0.00,CLR,,0.00,WeatherDisplay:10.37,2014-01-24 10:44:00,
2014-01-24 05:49:00,1.3,-5.3,30.64,SSW,209,11.5,11.5,73,0.00,CLR,,0.00,WeatherDisplay:10.37,2014-01-24 10:49:00,
2014-01-24 05:54:00,1.2,-5.4,30.64,SW,236,11.5,11.5,73,0.00,CLR,,0.00,WeatherDisplay:10.37,2014-01-24 10:54:00,
2014-01-24 05:59:00,1.0,-5.6,30.64,SW,229,14.0,14.0,73,0.00,CLR,,0.00,WeatherDisplay:10.37,2014-01-24 10:59:00,
2014-01-24 06:04:00,0.9,-6.0,30.64,SW,229,12.0,12.0,72,0.00,CLR,,0.00,WeatherDisplay:10.37,2014-01-24 11:04:00,
2014-01-24 06:09:00,0.6,-6.0,30.64,SW,229,10.4,10.4,73,0.00,CLR,,0.00,WeatherDisplay:10.37,2014-01-24 11:09:00,
2014-01-24 06:14:00,0.4,-6.2,30.64,SW,231,11.0,11.0,73,0.00,CLR,,0.00,WeatherDisplay:10.37,2014-01-24 11:14:00,
2014-01-24 06:19:00,0.2,-6.4,30.64,SW,227,10.4,10.4,73,0.00,CLR,,0.00,WeatherDisplay:10.37,2014-01-24 11:19:00,
2014-01-24 06:24:00,0.0,-6.6,30.64,SW,215,12.7,12.7,73,0.00,CLR,,0.00,WeatherDisplay:10.37,2014-01-24 11:24:00,
2014-01-24 06:29:00,-0.3,-6.9,30.64,WSW,242,12.0,12.0,73,0.00,CLR,,0.00,WeatherDisplay:10.37,2014-01-24 11:29:00,
2014-01-24 06:34:00,-0.5,-7.1,30.64,SW,215,12.7,12.7,73,0.00,CLR,,0.00,WeatherDisplay:10.37,2014-01-24 11:34:00,
2014-01-24 06:39:00,-0.6,-7.2,30.64,SW,234,11.5,11.5,73,0.00,CLR,,0.00,WeatherDisplay:10.37,2014-01-24 11:39:00,
2014-01-24 06:44:00,-0.8,-7.4,30.64,SW,231,8.1,8.1,73,0.00,CLR,,0.00,WeatherDisplay:10.37,2014-01-24 11:44:00,
2014-01-24 06:49:00,-1.0,-7.6,30.64,SW,230,10.0,10.0,73,0.00,CLR,,0.00,WeatherDisplay:10.37,2014-01-24 11:49:00,
2014-01-24 06:54:00,-1.2,-7.8,30.64,SW,227,8.0,8.0,73,0.00,CLR,,0.00,WeatherDisplay:10.37,2014-01-24 11:54:00,
2014-01-24 06:59:00,-1.4,-8.0,30.64,SW,222,11.0,11.0,73,0.00,CLR,,0.00,WeatherDisplay:10.37,2014-01-24 11:59:00,
2014-01-24 07:04:00,-1.6,-8.2,30.64,SW,219,8.1,8.1,73,0.00,CLR,,0.00,WeatherDisplay:10.37,2014-01-24 12:04:00,
2014-01-24 07:09:00,-1.8,-8.3,30.64,SW,229,9.0,9.0,73,0.00,CLR,,0.00,WeatherDisplay:10.37,2014-01-24 12:09:00,
2014-01-24 07:14:00,-1.9,-8.4,30.64,SSW,206,5.0,5.0,73,0.00,CLR,,0.00,WeatherDisplay:10.37,2014-01-24 12:14:00,
2014-01-24 07:19:00,-2.1,-8.6,30.64,SW,229,8.1,8.1,73,0.00,CLR,,0.00,WeatherDisplay:10.37,2014-01-24 12:19:00,
2014-01-24 07:24:00,-2.2,-8.7,30.64,SSW,211,7.0,7.0,73,0.00,CLR,,0.00,WeatherDisplay:10.37,2014-01-24 12:24:00,
2014-01-24 07:29:00,-2.3,-8.6,30.64,SW,228,9.2,9.2,74,0.00,CLR,,0.00,WeatherDisplay:10.37,2014-01-24 12:29:00,
2014-01-24 07:34:00,-2.3,-8.8,30.64,SW,217,9.2,9.2,73,0.00,CLR,,0.00,WeatherDisplay:10.37,2014-01-24 12:34:00,
2014-01-24 07:39:00,-2.3,-8.6,30.64,SW,225,10.4,10.4,74,0.00,CLR,,0.00,WeatherDisplay:10.37,2014-01-24 12:39:00,
2014-01-24 07:44:00,-2.3,-8.6,30.63,SW,227,11.5,11.5,74,0.00,CLR,,0.00,WeatherDisplay:10.37,2014-01-24 12:44:00,
2014-01-24 07:49:00,-2.3,-8.6,30.63,SW,221,13.8,13.8,74,0.00,CLR,,0.00,WeatherDisplay:10.37,2014-01-24 12:49:00,
2014-01-24 07:54:00,-2.4,-8.7,30.63,SW,223,11.5,11.5,74,0.00,CLR,,0.00,WeatherDisplay:10.37,2014-01-24 12:54:00,
2014-01-24 07:59:00,-2.4,-8.7,30.63,SW,227,8.1,8.1,74,0.00,CLR,,0.00,WeatherDisplay:10.37,2014-01-24 12:59:00,
2014-01-24 08:04:00,-2.4,-8.7,30.63,SW,225,10.4,10.4,74,0.00,CLR,,0.00,WeatherDisplay:10.37,2014-01-24 13:04:00,
2014-01-24 08:09:00,-2.4,-8.7,30.63,SW,221,11.5,11.5,74,0.00,CLR,,0.00,WeatherDisplay:10.37,2014-01-24 13:09:00,
2014-01-24 08:14:00,-2.4,-8.7,30.63,WSW,238,11.5,11.5,74,0.00,CLR,,0.00,WeatherDisplay:10.37,2014-01-24 13:14:00,
2014-01-24 08:19:00,-2.2,-8.5,30.63,WSW,238,13.0,13.0,74,0.00,CLR,,0.00,WeatherDisplay:10.37,2014-01-24 13:19:00,
2014-01-24 08:24:00,-2.0,-8.3,30.63,SW,228,12.0,12.0,74,0.00,CLR,,0.00,WeatherDisplay:10.37,2014-01-24 13:24:00,
2014-01-24 08:29:00,-1.9,-8.2,30.63,WSW,237,13.0,13.0,74,0.00,CLR,,0.00,WeatherDisplay:10.37,2014-01-24 13:29:00,
2014-01-24 08:34:00,-1.6,-7.9,30.63,SW,236,15.0,15.0,74,0.00,CLR,,0.00,WeatherDisplay:10.37,2014-01-24 13:34:00,
2014-01-24 08:39:00,-1.5,-7.8,30.63,SW,233,15.0,15.0,74,0.00,CLR,,0.00,WeatherDisplay:10.37,2014-01-24 13:39:00,
2014-01-24 08:44:00,-1.3,-7.6,30.62,SW,229,16.1,16.1,74,0.00,CLR,,0.00,WeatherDisplay:10.37,2014-01-24 13:44:00,
2014-01-24 08:49:00,-1.2,-7.5,30.62,SW,223,15.0,15.0,74,0.00,CLR,,0.00,WeatherDisplay:10.37,2014-01-24 13:49:00,
2014-01-24 08:54:00,-1.1,-7.4,30.62,SW,222,14.0,14.0,74,0.00,CLR,,0.00,WeatherDisplay:10.37,2014-01-24 13:54:00,
2014-01-24 08:59:00,-0.9,-7.2,30.62,SW,219,17.3,17.3,74,0.00,CLR,,0.00,WeatherDisplay:10.37,2014-01-24 13:59:00,
2014-01-24 09:04:00,-0.7,-7.0,30.62,SW,232,18.4,18.4,74,0.00,CLR,,0.00,WeatherDisplay:10.37,2014-01-24 14:04:00,
2014-01-24 09:09:00,-0.5,-6.8,30.62,WSW,241,14.0,14.0,74,0.00,CLR,,0.00,WeatherDisplay:10.37,2014-01-24 14:09:00,
2014-01-24 09:14:00,-0.2,-6.5,30.62,WSW,238,17.3,17.3,74,0.00,CLR,,0.00,WeatherDisplay:10.37,2014-01-24 14:14:00,
2014-01-24 09:19:00,0.0,-6.3,30.62,SW,217,13.8,13.8,74,0.00,CLR,,0.00,WeatherDisplay:10.37,2014-01-24 14:19:00,
2014-01-24 09:24:00,0.2,-6.1,30.62,SW,225,18.0,18.0,74,0.00,CLR,,0.00,WeatherDisplay:10.37,2014-01-24 14:24:00,
2014-01-24 09:29:00,0.6,-5.7,30.62,SSW,206,14.0,14.0,74,0.00,CLR,,0.00,WeatherDisplay:10.37,2014-01-24 14:29:00,
2014-01-24 09:30:00,14.3,-0.6,30.09,SW,223,14.0,21.0,51,0.00,CLR,CLR,0.00,WeatherDisplay:10.37,2014-01-24 14:30:00,
2014-01-24 09:34:00,0.8,-5.8,30.62,SW,236,21.9,21.9,73,0.00,CLR,,0.00,WeatherDisplay:10.37,2014-01-24 14:34:00,
2014-01-24 09:35:00,14.4,-0.5,30.09,SW,225,12.0,25.0,51,0.00,CLR,CLR,0.00,WeatherDisplay:10.37,2014-01-24 14:35:00,
2014-01-24 09:39:00,1.0,-5.6,30.61,SW,229,18.4,18.4,73,0.00,CLR,,0.00,WeatherDisplay:10.37,2014-01-24 14:39:00,
2014-01-24 09:40:00,14.6,-0.3,30.08,SW,218,17.0,26.0,51,0.00,CLR,CLR,0.00,WeatherDisplay:10.37,2014-01-24 14:40:00,
2014-01-24 09:44:00,1.5,-5.2,30.61,SW,232,18.0,18.0,73,0.00,CLR,,0.00,WeatherDisplay:10.37,2014-01-24 14:44:00,
2014-01-24 09:45:00,14.6,-0.3,30.08,SW,218,16.0,22.0,51,0.00,CLR,CLR,0.00,WeatherDisplay:10.37,2014-01-24 14:45:00,
2014-01-24 09:49:00,1.8,-4.9,30.61,SW,225,19.6,19.6,73,0.00,CLR,,0.00,WeatherDisplay:10.37,2014-01-24 14:49:00,
2014-01-24 09:50:00,14.8,-0.1,30.08,SW,225,17.0,28.0,51,0.00,CLR,CLR,0.00,WeatherDisplay:10.37,2014-01-24 14:50:00,
2014-01-24 09:54:00,2.0,-5.0,30.61,SW,227,23.0,23.0,72,0.00,CLR,,0.00,WeatherDisplay:10.37,2014-01-24 14:54:00,
2014-01-24 09:55:00,14.9,-0.4,30.07,SW,223,12.0,22.0,50,0.00,CLR,CLR,0.00,WeatherDisplay:10.37,2014-01-24 14:55:00,
2014-01-24 09:59:00,2.1,-4.9,30.61,SW,214,20.0,20.0,72,0.00,CLR,,0.00,WeatherDisplay:10.37,2014-01-24 14:59:00,
2014-01-24 10:00:00,14.8,-0.1,30.07,SW,223,0.0,23.0,51,0.00,CLR,CLR,0.00,WeatherDisplay:10.37,2014-01-24 15:00:00,
2014-01-24 10:04:00,2.3,-4.7,30.61,SW,227,16.1,16.1,72,0.00,CLR,,0.00,WeatherDisplay:10.37,2014-01-24 15:04:00,
2014-01-24 10:05:00,14.9,0.0,30.06,SW,225,16.0,22.0,51,0.00,CLR,CLR,0.00,WeatherDisplay:10.37,2014-01-24 15:05:00,
2014-01-24 10:09:00,2.6,-4.4,30.60,South,188,17.3,17.3,72,0.00,CLR,,0.00,WeatherDisplay:10.37,2014-01-24 15:09:00,
2014-01-24 10:10:00,14.9,-0.4,30.05,SW,223,15.0,22.0,50,0.00,CLR,CLR,0.00,WeatherDisplay:10.37,2014-01-24 15:10:00,
2014-01-24 10:14:00,2.8,-4.2,30.61,SW,230,12.7,12.7,72,0.00,CLR,,0.00,WeatherDisplay:10.37,2014-01-24 15:14:00,
2014-01-24 10:15:00,15.0,-0.3,30.05,SW,223,18.0,22.0,50,0.00,CLR,CLR,0.00,WeatherDisplay:10.37,2014-01-24 15:15:00,
2014-01-24 10:19:00,3.1,-4.2,30.60,SW,224,18.0,18.0,71,0.00,CLR,,0.00,WeatherDisplay:10.37,2014-01-24 15:19:00,
2014-01-24 10:20:00,15.0,0.1,30.04,SW,223,16.0,21.0,51,0.00,CLR,CLR,0.00,WeatherDisplay:10.37,2014-01-24 15:20:00,
2014-01-24 10:24:00,3.2,-4.1,30.60,SW,231,15.0,15.0,71,0.00,CLR,,0.00,WeatherDisplay:10.37,2014-01-24 15:24:00,
2014-01-24 10:25:00,15.0,0.1,30.04,SW,222,10.0,16.0,51,0.00,CLR,CLR,0.00,WeatherDisplay:10.37,2014-01-24 15:25:00,
2014-01-24 10:29:00,3.2,-4.1,30.60,SW,233,20.7,20.7,71,0.00,CLR,,0.00,WeatherDisplay:10.37,2014-01-24 15:29:00,
2014-01-24 10:30:00,15.0,0.1,30.04,SW,225,16.0,21.0,51,0.00,CLR,CLR,0.00,WeatherDisplay:10.37,2014-01-24 15:30:00,
2014-01-24 10:34:00,3.3,-4.0,30.60,SW,225,19.6,19.6,71,0.00,CLR,,0.00,WeatherDisplay:10.37,2014-01-24 15:34:00,
2014-01-24 10:39:00,3.5,-3.8,30.60,SW,223,22.0,22.0,71,0.00,CLR,,0.00,WeatherDisplay:10.37,2014-01-24 15:39:00,
2014-01-24 10:44:00,3.7,-3.6,30.60,SW,232,22.0,22.0,71,0.00,CLR,,0.00,WeatherDisplay:10.37,2014-01-24 15:44:00,
2014-01-24 10:49:00,3.8,-3.8,30.60,SW,233,20.0,20.0,70,0.00,CLR,,0.00,WeatherDisplay:10.37,2014-01-24 15:49:00,
2014-01-24 10:54:00,4.1,-3.5,30.60,SW,236,19.6,19.6,70,0.00,CLR,,0.00,WeatherDisplay:10.37,2014-01-24 15:54:00,
2014-01-24 10:59:00,4.3,-3.3,30.59,WSW,242,22.0,22.0,70,0.00,CLR,,0.00,WeatherDisplay:10.37,2014-01-24 15:59:00,
2014-01-24 11:00:00,15.8,0.4,30.04,SW,231,12.0,18.0,50,0.00,CLR,CLR,0.00,WeatherDisplay:10.37,2014-01-24 16:00:00,
2014-01-24 11:04:00,4.3,-3.3,30.59,WSW,257,25.0,25.0,70,0.00,CLR,,0.00,WeatherDisplay:10.37,2014-01-24 16:04:00,
2014-01-24 11:05:00,16.0,0.6,30.04,SW,227,16.0,19.0,50,0.00,CLR,CLR,0.00,WeatherDisplay:10.37,2014-01-24 16:05:00,
2014-01-24 11:09:00,4.2,-3.7,30.59,SW,218,21.0,21.0,69,0.00,CLR,,0.00,WeatherDisplay:10.37,2014-01-24 16:09:00,
2014-01-24 11:10:00,16.4,1.0,30.03,SW,225,16.0,30.0,50,0.00,CLR,CLR,0.00,WeatherDisplay:10.37,2014-01-24 16:10:00,
2014-01-24 11:14:00,4.4,-3.5,30.58,WSW,238,21.0,21.0,69,0.00,CLR,,0.00,WeatherDisplay:10.37,2014-01-24 16:14:00,
2014-01-24 11:15:00,16.8,1.3,30.03,SW,225,20.0,24.0,50,0.00,CLR,CLR,0.00,WeatherDisplay:10.37,2014-01-24 16:15:00,
2014-01-24 11:19:00,4.3,-3.6,30.58,WSW,252,26.5,26.5,69,0.00,CLR,,0.00,WeatherDisplay:10.37,2014-01-24 16:19:00,
2014-01-24 11:20:00,17.2,1.3,30.03,SW,223,17.0,25.0,49,0.00,CLR,CLR,0.00,WeatherDisplay:10.37,2014-01-24 16:20:00,
2014-01-24 11:24:00,4.2,-3.7,30.57,WSW,237,23.0,23.0,69,0.00,CLR,,0.00,WeatherDisplay:10.37,2014-01-24 16:24:00,
2014-01-24 11:25:00,17.4,1.5,30.02,SW,222,17.0,21.0,49,0.00,CLR,CLR,0.00,WeatherDisplay:10.37,2014-01-24 16:25:00,
2014-01-24 11:29:00,4.5,-3.4,30.57,SW,221,22.0,22.0,69,0.00,CLR,,0.00,WeatherDisplay:10.37,2014-01-24 16:29:00,
2014-01-24 11:30:00,17.5,1.6,30.02,SW,225,16.0,21.0,49,0.00,CLR,CLR,0.00,WeatherDisplay:10.37,2014-01-24 16:30:00,
2014-01-24 11:34:00,5.6,-2.4,30.57,SW,234,24.0,24.0,69,0.00,CLR,,0.00,WeatherDisplay:10.37,2014-01-24 16:34:00,
2014-01-24 11:35:00,17.6,1.7,30.01,SW,225,18.0,25.0,49,0.00,CLR,CLR,0.00,WeatherDisplay:10.37,2014-01-24 16:35:00,
2014-01-24 11:39:00,6.5,-1.5,30.57,SW,221,24.2,24.2,69,0.00,CLR,,0.00,WeatherDisplay:10.37,2014-01-24 16:39:00,
2014-01-24 11:40:00,17.7,1.7,30.01,SW,227,15.0,22.0,49,0.00,CLR,CLR,0.00,WeatherDisplay:10.37,2014-01-24 16:40:00,
2014-01-24 11:44:00,7.0,-1.7,30.56,SW,218,24.2,24.2,67,0.00,CLR,,0.00,WeatherDisplay:10.37,2014-01-24 16:44:00,
2014-01-24 11:45:00,17.9,1.5,30.01,SW,227,21.0,26.0,48,0.00,CLR,CLR,0.00,WeatherDisplay:10.37,2014-01-24 16:45:00,
2014-01-24 11:49:00,6.9,-1.8,30.56,WSW,240,20.0,20.0,67,0.00,CLR,,0.00,WeatherDisplay:10.37,2014-01-24 16:49:00,
2014-01-24 11:50:00,18.0,2.0,30.00,SW,227,22.0,29.0,49,0.00,CLR,CLR,0.00,WeatherDisplay:10.37,2014-01-24 16:50:00,
2014-01-24 11:54:00,7.0,-1.7,30.56,WSW,239,22.0,22.0,67,0.00,CLR,,0.00,WeatherDisplay:10.37,2014-01-24 16:54:00,
2014-01-24 11:55:00,18.2,1.8,30.00,SW,227,16.0,26.0,48,0.00,CLR,CLR,0.00,WeatherDisplay:10.37,2014-01-24 16:55:00,
2014-01-24 11:59:00,6.9,-2.1,30.55,SW,228,22.0,22.0,66,0.00,CLR,,0.00,WeatherDisplay:10.37,2014-01-24 16:59:00,
2014-01-24 12:00:00,18.2,1.8,29.99,SW,227,20.0,25.0,48,0.00,CLR,CLR,0.00,WeatherDisplay:10.37,2014-01-24 17:00:00,
2014-01-24 12:04:00,7.2,-1.8,30.54,WSW,244,22.0,22.0,66,0.00,CLR,,0.00,WeatherDisplay:10.37,2014-01-24 17:04:00,
2014-01-24 12:05:00,18.3,2.3,29.99,SW,227,20.0,30.0,49,0.00,CLR,CLR,0.00,WeatherDisplay:10.37,2014-01-24 17:05:00,
2014-01-24 12:09:00,7.6,-1.4,30.53,SW,226,26.5,26.5,66,0.00,CLR,,0.00,WeatherDisplay:10.37,2014-01-24 17:09:00,
2014-01-24 12:10:00,18.4,2.0,29.99,SW,225,20.0,25.0,48,0.00,CLR,CLR,0.00,WeatherDisplay:10.37,2014-01-24 17:10:00,
2014-01-24 12:14:00,7.8,-1.5,30.53,SW,226,20.7,20.7,65,0.00,CLR,,0.00,WeatherDisplay:10.37,2014-01-24 17:14:00,
2014-01-24 12:15:00,18.5,2.0,29.99,SW,227,22.0,28.0,48,0.00,CLR,CLR,0.00,WeatherDisplay:10.37,2014-01-24 17:15:00,
2014-01-24 12:19:00,7.9,-1.4,30.53,SW,228,19.6,19.6,65,0.00,CLR,,0.00,WeatherDisplay:10.37,2014-01-24 17:19:00,
2014-01-24 12:20:00,18.6,1.7,29.98,SW,227,15.0,26.0,47,0.00,CLR,CLR,0.00,WeatherDisplay:10.37,2014-01-24 17:20:00,
2014-01-24 12:24:00,8.1,-1.2,30.52,WSW,251,19.6,19.6,65,0.00,CLR,,0.00,WeatherDisplay:10.37,2014-01-24 17:24:00,
2014-01-24 12:25:00,18.6,1.7,29.98,SW,225,22.0,27.0,47,0.00,CLR,CLR,0.00,WeatherDisplay:10.37,2014-01-24 17:25:00,
2014-01-24 12:29:00,8.5,-0.9,30.52,WSW,238,19.6,19.6,65,0.00,CLR,,0.00,WeatherDisplay:10.37,2014-01-24 17:29:00,
2014-01-24 12:30:00,18.7,1.8,29.98,SW,225,17.0,24.0,47,0.00,CLR,CLR,0.00,WeatherDisplay:10.37,2014-01-24 17:30:00,
2014-01-24 12:34:00,8.8,-0.6,30.51,SW,219,17.3,17.3,65,0.00,CLR,,0.00,WeatherDisplay:10.37,2014-01-24 17:34:00,
2014-01-24 12:35:00,18.8,1.9,29.97,SW,225,22.0,24.0,47,0.00,CLR,CLR,0.00,WeatherDisplay:10.37,2014-01-24 17:35:00,
2014-01-24 12:39:00,9.0,-0.7,30.51,SSW,211,17.3,17.3,64,0.00,CLR,,0.00,WeatherDisplay:10.37,2014-01-24 17:39:00,
2014-01-24 12:40:00,18.8,1.9,29.97,SW,227,21.0,26.0,47,0.00,CLR,CLR,0.00,WeatherDisplay:10.37,2014-01-24 17:40:00,
2014-01-24 12:44:00,9.4,-0.3,30.50,SW,218,18.0,18.0,64,0.00,CLR,,0.00,WeatherDisplay:10.37,2014-01-24 17:44:00,
2014-01-24 12:45:00,18.8,1.9,29.97,SW,227,21.0,30.0,47,0.00,CLR,CLR,0.00,WeatherDisplay:10.37,2014-01-24 17:45:00,
2014-01-24 12:49:00,9.6,-0.5,30.50,SSW,211,19.0,19.0,63,0.00,CLR,,0.00,WeatherDisplay:10.37,2014-01-24 17:49:00,
2014-01-24 12:50:00,18.9,2.0,29.96,SW,227,20.0,26.0,47,0.00,CLR,CLR,0.00,WeatherDisplay:10.37,2014-01-24 17:50:00,
2014-01-24 12:54:00,9.6,-0.5,30.50,SW,236,21.0,21.0,63,0.00,CLR,,0.00,WeatherDisplay:10.37,2014-01-24 17:54:00,
2014-01-24 12:55:00,18.9,2.0,29.95,SW,227,21.0,30.0,47,0.00,CLR,CLR,0.00,WeatherDisplay:10.37,2014-01-24 17:55:00,
2014-01-24 12:59:00,9.6,-0.5,30.49,WSW,237,20.0,20.0,63,0.00,CLR,,0.00,WeatherDisplay:10.37,2014-01-24 17:59:00,
2014-01-24 13:00:00,18.9,2.4,29.95,SW,227,18.0,28.0,48,0.00,CLR,CLR,0.00,WeatherDisplay:10.37,2014-01-24 18:00:00,
2014-01-24 13:04:00,9.9,-0.2,30.48,WSW,242,18.4,18.4,63,0.00,CLR,,0.00,WeatherDisplay:10.37,2014-01-24 18:04:00,
2014-01-24 13:05:00,18.9,2.0,29.94,SW,228,20.0,27.0,47,0.00,CLR,CLR,0.00,WeatherDisplay:10.37,2014-01-24 18:05:00,
2014-01-24 13:09:00,10.0,-0.1,30.48,WSW,240,19.6,19.6,63,0.00,CLR,,0.00,WeatherDisplay:10.37,2014-01-24 18:09:00,
2014-01-24 13:10:00,18.8,1.9,29.94,SW,225,21.0,28.0,47,0.00,CLR,CLR,0.00,WeatherDisplay:10.37,2014-01-24 18:10:00,
2014-01-24 13:14:00,10.4,0.3,30.48,SW,215,16.1,16.1,63,0.00,CLR,,0.00,WeatherDisplay:10.37,2014-01-24 18:14:00,
2014-01-24 13:15:00,18.8,1.9,29.93,SW,225,22.0,31.0,47,0.00,CLR,CLR,0.00,WeatherDisplay:10.37,2014-01-24 18:15:00,
2014-01-24 13:19:00,10.9,0.8,30.47,SW,227,18.4,18.4,63,0.00,CLR,,0.00,WeatherDisplay:10.37,2014-01-24 18:19:00,
2014-01-24 13:20:00,18.9,2.0,29.93,SW,225,23.0,31.0,47,0.00,CLR,CLR,0.00,WeatherDisplay:10.37,2014-01-24 18:20:00,
2014-01-24 13:24:00,11.1,0.6,30.47,SSW,206,17.3,17.3,62,0.00,CLR,,0.00,WeatherDisplay:10.37,2014-01-24 18:24:00,
2014-01-24 13:29:00,11.2,0.4,30.46,SSW,201,22.0,22.0,61,0.00,CLR,,0.00,WeatherDisplay:10.37,2014-01-24 18:29:00,
2014-01-24 13:34:00,11.0,0.2,30.46,SW,215,24.2,24.2,61,0.00,CLR,,0.00,WeatherDisplay:10.37,2014-01-24 18:34:00,
2014-01-24 13:39:00,10.8,0.0,30.46,SW,222,23.0,23.0,61,0.00,CLR,,0.00,WeatherDisplay:10.37,2014-01-24 18:39:00,
2014-01-24 13:44:00,10.8,0.3,30.46,SW,218,20.7,20.7,62,0.00,CLR,,0.00,WeatherDisplay:10.37,2014-01-24 18:44:00,
2014-01-24 13:49:00,11.0,0.2,30.46,SW,231,15.0,15.0,61,0.00,CLR,,0.00,WeatherDisplay:10.37,2014-01-24 18:49:00,
2014-01-24 13:54:00,11.4,0.5,30.45,SW,234,26.5,26.5,61,0.00,CLR,,0.00,WeatherDisplay:10.37,2014-01-24 18:54:00,
2014-01-24 13:59:00,11.5,0.6,30.45,SW,217,22.0,22.0,61,0.00,CLR,,0.00,WeatherDisplay:10.37,2014-01-24 18:59:00,
2014-01-24 14:04:00,11.6,0.4,30.45,SW,233,25.3,25.3,60,0.00,CLR,,0.00,WeatherDisplay:10.37,2014-01-24 19:04:00,
2014-01-24 14:09:00,11.8,0.6,30.44,SW,226,25.3,25.3,60,0.00,CLR,,0.00,WeatherDisplay:10.37,2014-01-24 19:09:00,
2014-01-24 14:14:00,11.9,0.7,30.43,SW,222,22.0,22.0,60,0.00,CLR,,0.00,WeatherDisplay:10.37,2014-01-24 19:14:00,
2014-01-24 14:19:00,12.2,0.9,30.43,SW,234,24.0,24.0,60,0.00,CLR,,0.00,WeatherDisplay:10.37,2014-01-24 19:19:00,
2014-01-24 14:24:00,12.3,1.0,30.42,SSW,206,24.0,24.0,60,0.00,CLR,,0.00,WeatherDisplay:10.37,2014-01-24 19:24:00,
2014-01-24 14:29:00,12.3,0.7,30.41,SW,221,27.0,27.0,59,0.00,CLR,,0.00,WeatherDisplay:10.37,2014-01-24 19:29:00,
2014-01-24 14:34:00,12.3,0.7,30.42,SW,223,28.0,28.0,59,0.00,CLR,,0.00,WeatherDisplay:10.37,2014-01-24 19:34:00,
2014-01-24 14:39:00,12.3,0.7,30.41,SW,229,25.3,25.3,59,0.00,CLR,,0.00,WeatherDisplay:10.37,2014-01-24 19:39:00,
2014-01-24 14:44:00,12.4,0.8,30.41,SW,217,21.0,21.0,59,0.00,CLR,,0.00,WeatherDisplay:10.37,2014-01-24 19:44:00,
2014-01-24 14:49:00,12.4,0.4,30.40,SW,226,23.0,23.0,58,0.00,CLR,,0.00,WeatherDisplay:10.37,2014-01-24 19:49:00,
2014-01-24 14:54:00,12.4,0.4,30.40,SW,219,24.2,24.2,58,0.00,CLR,,0.00,WeatherDisplay:10.37,2014-01-24 19:54:00,
2014-01-24 14:59:00,12.4,0.4,30.39,SW,217,28.0,28.0,58,0.00,CLR,,0.00,WeatherDisplay:10.37,2014-01-24 19:59:00,
2014-01-24 15:04:00,12.4,0.8,30.39,SW,222,26.0,26.0,59,0.00,CLR,,0.00,WeatherDisplay:10.37,2014-01-24 20:04:00,
2014-01-24 15:09:00,12.7,0.7,30.38,SW,223,21.0,21.0,58,0.00,CLR,,0.00,WeatherDisplay:10.37,2014-01-24 20:09:00,
2014-01-24 15:14:00,13.0,1.0,30.38,SW,227,26.5,26.5,58,0.00,CLR,,0.00,WeatherDisplay:10.37,2014-01-24 20:14:00,
2014-01-24 15:19:00,13.0,1.3,30.38,SW,221,23.0,23.0,59,0.00,,,0.00,WeatherDisplay:10.37,2014-01-24 20:19:00,
2014-01-24 15:24:00,12.9,1.6,30.38,SW,236,23.0,23.0,60,0.00,CLR,,0.00,WeatherDisplay:10.37,2014-01-24 20:24:00,
2014-01-24 15:29:00,13.0,1.3,30.37,SW,233,25.3,25.3,59,0.00,CLR,,0.00,WeatherDisplay:10.37,2014-01-24 20:29:00,
2014-01-24 15:34:00,12.9,0.9,30.37,SW,221,31.1,31.1,58,0.00,CLR,,0.00,WeatherDisplay:10.37,2014-01-24 20:34:00,
2014-01-24 15:39:00,13.0,0.6,30.36,WSW,237,28.8,28.8,57,0.00,CLR,,0.00,WeatherDisplay:10.37,2014-01-24 20:39:00,
2014-01-24 15:44:00,13.1,0.7,30.36,SSW,206,28.0,28.0,57,0.00,CLR,,0.00,WeatherDisplay:10.37,2014-01-24 20:44:00,
2014-01-24 15:49:00,13.3,0.5,30.36,SW,217,23.0,23.0,56,0.00,CLR,,0.00,WeatherDisplay:10.37,2014-01-24 20:49:00,
2014-01-24 15:54:00,13.3,0.5,30.36,SW,230,18.4,18.4,56,0.00,CLR,,0.00,WeatherDisplay:10.37,2014-01-24 20:54:00,
2014-01-24 15:59:00,13.2,0.4,30.35,SW,221,23.0,23.0,56,0.00,CLR,,0.00,WeatherDisplay:10.37,2014-01-24 20:59:00,
2014-01-24 16:04:00,13.0,-0.2,30.35,SW,223,20.0,20.0,55,0.00,CLR,,0.00,WeatherDisplay:10.37,2014-01-24 21:04:00,
2014-01-24 16:09:00,12.8,-0.3,30.35,SW,215,18.4,18.4,55,0.00,CLR,,0.00,WeatherDisplay:10.37,2014-01-24 21:09:00,
2014-01-24 16:14:00,12.7,-0.8,30.34,SSW,209,23.0,23.0,54,0.00,CLR,,0.00,WeatherDisplay:10.37,2014-01-24 21:14:00,
2014-01-24 16:19:00,12.6,-0.9,30.34,SSW,198,24.0,24.0,54,0.00,CLR,,0.00,WeatherDisplay:10.37,2014-01-24 21:19:00,
2014-01-24 16:24:00,12.6,-0.9,30.33,SW,220,24.2,24.2,54,0.00,CLR,,0.00,WeatherDisplay:10.37,2014-01-24 21:24:00,
2014-01-24 16:29:00,12.7,-0.8,30.34,SW,225,16.1,16.1,54,0.00,CLR,,0.00,WeatherDisplay:10.37,2014-01-24 21:29:00,
2014-01-24 16:34:00,12.8,-0.7,30.33,SW,229,21.0,21.0,54,0.00,CLR,,0.00,WeatherDisplay:10.37,2014-01-24 21:34:00,
2014-01-24 16:39:00,12.7,-0.8,30.33,SW,223,25.3,25.3,54,0.00,CLR,,0.00,WeatherDisplay:10.37,2014-01-24 21:39:00,
2014-01-24 16:44:00,12.6,-0.9,30.32,WSW,240,26.5,26.5,54,0.00,CLR,,0.00,WeatherDisplay:10.37,2014-01-24 21:44:00,
2014-01-24 16:49:00,12.6,-0.9,30.32,SW,228,18.4,18.4,54,0.00,CLR,,0.00,WeatherDisplay:10.37,2014-01-24 21:49:00,
2014-01-24 16:54:00,12.5,-1.0,30.31,SW,227,23.0,23.0,54,0.00,CLR,,0.00,WeatherDisplay:10.37,2014-01-24 21:54:00,
2014-01-24 16:59:00,12.5,-1.0,30.32,SW,219,18.4,18.4,54,0.00,CLR,,0.00,WeatherDisplay:10.37,2014-01-24 21:59:00,
2014-01-24 17:04:00,12.5,-1.0,30.32,SW,225,19.6,19.6,54,0.00,CLR,,0.00,WeatherDisplay:10.37,2014-01-24 22:04:00,
2014-01-24 17:09:00,12.5,-1.0,30.31,SW,236,20.0,20.0,54,0.00,CLR,,0.00,WeatherDisplay:10.37,2014-01-24 22:09:00,
2014-01-24 17:14:00,12.4,-1.1,30.30,SSW,208,19.6,19.6,54,0.00,CLR,,0.00,WeatherDisplay:10.37,2014-01-24 22:14:00,
2014-01-24 17:19:00,12.3,-1.6,30.30,SW,223,21.0,21.0,53,0.00,CLR,,0.00,WeatherDisplay:10.37,2014-01-24 22:19:00,
2014-01-24 17:24:00,12.2,-1.7,30.30,SSW,209,19.6,19.6,53,0.00,CLR,,0.00,WeatherDisplay:10.37,2014-01-24 22:24:00,
2014-01-24 17:29:00,12.1,-1.8,30.29,SW,225,16.1,16.1,53,0.00,CLR,,0.00,WeatherDisplay:10.37,2014-01-24 22:29:00,
2014-01-24 17:34:00,12.0,-1.9,30.29,SSW,204,16.1,16.1,53,0.00,CLR,,0.00,WeatherDisplay:10.37,2014-01-24 22:34:00,
2014-01-24 17:39:00,12.0,-1.5,30.29,SW,226,12.0,12.0,54,0.00,CLR,,0.00,WeatherDisplay:10.37,2014-01-24 22:39:00,
2014-01-24 17:44:00,11.9,-1.6,30.28,SSW,211,16.0,16.0,54,0.00,CLR,,0.00,WeatherDisplay:10.37,2014-01-24 22:44:00,
2014-01-24 17:49:00,11.8,-1.7,30.28,SSW,205,14.0,14.0,54,0.00,CLR,,0.00,WeatherDisplay:10.37,2014-01-24 22:49:00,
2014-01-24 17:54:00,11.8,-1.3,30.28,SSW,200,13.0,13.0,55,0.00,CLR,,0.00,WeatherDisplay:10.37,2014-01-24 22:54:00,
2014-01-24 17:59:00,11.8,-1.3,30.27,SW,236,13.0,13.0,55,0.00,CLR,,0.00,WeatherDisplay:10.37,2014-01-24 22:59:00,
2014-01-24 18:04:00,11.8,-1.3,30.27,SW,219,16.0,16.0,55,0.00,CLR,,0.00,WeatherDisplay:10.37,2014-01-24 23:04:00,
2014-01-24 18:09:00,11.9,-1.2,30.27,SW,223,15.0,15.0,55,0.00,CLR,,0.00,WeatherDisplay:10.37,2014-01-24 23:09:00,
2014-01-24 18:14:00,11.9,-1.2,30.27,WSW,248,13.0,13.0,55,0.00,CLR,,0.00,WeatherDisplay:10.37,2014-01-24 23:14:00,
2014-01-24 18:19:00,12.0,-1.1,30.26,SSW,212,18.4,18.4,55,0.00,CLR,,0.00,WeatherDisplay:10.37,2014-01-24 23:19:00,
2014-01-24 18:24:00,12.0,-1.1,30.25,SW,225,14.0,14.0,55,0.00,CLR,,0.00,WeatherDisplay:10.37,2014-01-24 23:24:00,
2014-01-24 18:29:00,11.9,-1.2,30.25,SW,227,17.0,17.0,55,0.00,CLR,,0.00,WeatherDisplay:10.37,2014-01-24 23:29:00,
2014-01-24 18:34:00,12.0,-1.1,30.24,SW,221,21.0,21.0,55,0.00,CLR,,0.00,WeatherDisplay:10.37,2014-01-24 23:34:00,
2014-01-24 18:39:00,12.0,-1.1,30.23,SW,225,18.4,18.4,55,0.00,CLR,,0.00,WeatherDisplay:10.37,2014-01-24 23:39:00,
2014-01-24 18:44:00,12.1,-1.0,30.23,SW,223,18.4,18.4,55,0.00,CLR,,0.00,WeatherDisplay:10.37,2014-01-24 23:44:00,
2014-01-24 18:49:00,12.2,-0.9,30.23,SW,219,19.6,19.6,55,0.00,CLR,,0.00,WeatherDisplay:10.37,2014-01-24 23:49:00,
2014-01-24 18:54:00,12.2,-0.9,30.22,SW,219,18.4,18.4,55,0.00,CLR,,0.00,WeatherDisplay:10.37,2014-01-24 23:54:00,
2014-01-24 18:59:00,12.3,-1.2,30.22,SW,225,19.6,19.6,54,0.00,CLR,,0.00,WeatherDisplay:10.37,2014-01-24 23:59:00,
2014-01-24 19:04:00,12.4,-1.1,30.21,SSW,202,23.0,23.0,54,0.00,CLR,,0.00,WeatherDisplay:10.37,2014-01-25 00:04:00,
2014-01-24 19:09:00,12.5,-1.0,30.21,WSW,238,26.5,26.5,54,0.00,CLR,,0.00,WeatherDisplay:10.37,2014-01-25 00:09:00,
2014-01-24 19:14:00,12.5,-1.0,30.21,SW,223,21.0,21.0,54,0.00,CLR,,0.00,WeatherDisplay:10.37,2014-01-25 00:14:00,
2014-01-24 19:19:00,12.5,-1.0,30.20,SSW,206,19.6,19.6,54,0.00,CLR,,0.00,WeatherDisplay:10.37,2014-01-25 00:19:00,
2014-01-24 19:24:00,12.6,-0.9,30.19,SSW,205,20.0,20.0,54,0.00,CLR,,0.00,WeatherDisplay:10.37,2014-01-25 00:24:00,
2014-01-24 19:29:00,12.7,-0.8,30.19,SSW,213,22.0,22.0,54,0.00,CLR,,0.00,WeatherDisplay:10.37,2014-01-25 00:29:00,
2014-01-24 19:34:00,12.7,-1.2,30.19,SW,214,23.0,23.0,53,0.00,CLR,,0.00,WeatherDisplay:10.37,2014-01-25 00:34:00,
2014-01-24 19:39:00,12.8,-1.1,30.18,SSW,200,29.0,29.0,53,0.00,CLR,,0.00,WeatherDisplay:10.37,2014-01-25 00:39:00,
2014-01-24 19:44:00,12.9,-1.0,30.18,SW,221,18.0,18.0,53,0.00,CLR,,0.00,WeatherDisplay:10.37,2014-01-25 00:44:00,
2014-01-24 19:49:00,12.9,-1.0,30.17,SW,232,25.3,25.3,53,0.00,CLR,,0.00,WeatherDisplay:10.37,2014-01-25 00:49:00,
2014-01-24 19:54:00,12.8,-1.1,30.18,WSW,237,23.0,23.0,53,0.00,CLR,,0.00,WeatherDisplay:10.37,2014-01-25 00:54:00,
2014-01-24 19:59:00,12.9,-1.4,30.17,SW,227,17.3,17.3,52,0.00,CLR,,0.00,WeatherDisplay:10.37,2014-01-25 00:59:00,
2014-01-24 20:04:00,13.0,-1.4,30.17,SW,217,26.5,26.5,52,0.00,CLR,,0.00,WeatherDisplay:10.37,2014-01-25 01:04:00,
2014-01-24 20:09:00,13.1,-1.3,30.16,WSW,238,19.6,19.6,52,0.00,CLR,,0.00,WeatherDisplay:10.37,2014-01-25 01:09:00,
2014-01-24 20:14:00,13.1,-1.3,30.16,SW,226,17.3,17.3,52,0.00,CLR,,0.00,WeatherDisplay:10.37,2014-01-25 01:14:00,
2014-01-24 20:19:00,13.2,-1.2,30.16,WSW,238,20.7,20.7,52,0.00,CLR,,0.00,WeatherDisplay:10.37,2014-01-25 01:19:00,
2014-01-24 20:24:00,13.2,-1.2,30.16,SW,227,19.6,19.6,52,0.00,CLR,,0.00,WeatherDisplay:10.37,2014-01-25 01:24:00,
2014-01-24 20:29:00,13.3,-1.1,30.15,SW,219,19.6,19.6,52,0.00,CLR,,0.00,WeatherDisplay:10.37,2014-01-25 01:29:00,
2014-01-24 20:34:00,13.4,-1.4,30.15,SSW,197,16.1,16.1,51,0.00,CLR,,0.00,WeatherDisplay:10.37,2014-01-25 01:34:00,
2014-01-24 20:39:00,13.4,-1.4,30.15,SW,222,23.0,23.0,51,0.00,CLR,,0.00,WeatherDisplay:10.37,2014-01-25 01:39:00,
2014-01-24 20:44:00,13.5,-1.3,30.14,SSW,210,21.9,21.9,51,0.00,CLR,,0.00,WeatherDisplay:10.37,2014-01-25 01:44:00,
2014-01-24 20:49:00,13.6,-1.2,30.13,SW,229,17.3,17.3,51,0.00,CLR,,0.00,WeatherDisplay:10.37,2014-01-25 01:49:00,
2014-01-24 20:54:00,13.7,-1.1,30.13,WSW,238,24.0,24.0,51,0.00,CLR,,0.00,WeatherDisplay:10.37,2014-01-25 01:54:00,
2014-01-24 20:59:00,13.9,-0.9,30.13,SW,222,19.0,19.0,51,0.00,CLR,,0.00,WeatherDisplay:10.37,2014-01-25 01:59:00,
2014-01-24 21:04:00,13.9,-0.9,30.12,SW,221,17.3,17.3,51,0.00,CLR,,0.00,WeatherDisplay:10.37,2014-01-25 02:04:00,
2014-01-24 21:09:00,14.0,-0.8,30.12,SSW,213,18.4,18.4,51,0.00,CLR,,0.00,WeatherDisplay:10.37,2014-01-25 02:09:00,
2014-01-24 21:14:00,14.0,-0.8,30.10,SSW,209,14.0,14.0,51,0.00,CLR,,0.00,WeatherDisplay:10.37,2014-01-25 02:14:00,
2014-01-24 21:19:00,14.1,-0.7,30.10,SW,225,24.2,24.2,51,0.00,CLR,,0.00,WeatherDisplay:10.37,2014-01-25 02:19:00,
2014-01-24 21:24:00,14.2,-0.6,30.09,SSW,206,21.0,21.0,51,0.00,CLR,,0.00,WeatherDisplay:10.37,2014-01-25 02:24:00,
2014-01-24 22:33:00,15.2,-0.1,30.03,SSW,195,28.0,28.0,50,0.00,CLR,,0.00,WeatherDisplay:10.37,2014-01-25 03:33:00,
2014-01-24 22:38:00,15.2,0.3,30.04,SW,231,19.6,19.6,51,0.00,CLR,,0.00,WeatherDisplay:10.37,2014-01-25 03:38:00,
2014-01-24 22:43:00,15.3,0.4,30.03,SW,214,19.6,19.6,51,0.00,CLR,,0.00,WeatherDisplay:10.37,2014-01-25 03:43:00,
2014-01-24 22:48:00,15.5,0.6,30.03,SW,226,18.0,18.0,51,0.00,CLR,,0.00,WeatherDisplay:10.37,2014-01-25 03:48:00,
2014-01-24 22:53:00,15.6,0.7,30.03,SW,230,19.0,19.0,51,0.00,CLR,,0.00,WeatherDisplay:10.37,2014-01-25 03:53:00,